sensor_id;sensor_type;location;lat;lon;timestamp;P1;durP1;ratioP1;P2;durP2;ratioP2
75456;SDS011;64036;48.266;14.192;2023-09-19T00:01:34;2.80;;;1.70;;
75456;SDS011;64036;48.266;14.192;2023-09-19T00:04:00;2.60;;;1.60;;
75456;SDS011;64036;48.266;14.192;2023-09-19T00:06:30;2.20;;;1.70;;
75456;SDS011;64036;48.266;14.192;2023-09-19T00:08:57;3.10;;;1.70;;
75456;SDS011;64036;48.266;14.192;2023-09-19T00:11:26;3.00;;;1.60;;
75456;SDS011;64036;48.266;14.192;2023-09-19T00:13:52;2.40;;;1.50;;
75456;SDS011;64036;48.266;14.192;2023-09-19T00:16:18;4.50;;;1.80;;
75456;SDS011;64036;48.266;14.192;2023-09-19T00:18:44;2.40;;;1.70;;
75456;SDS011;64036;48.266;14.192;2023-09-19T00:21:10;2.40;;;1.60;;
75456;SDS011;64036;48.266;14.192;2023-09-19T00:23:36;5.10;;;2.00;;
75456;SDS011;64036;48.266;14.192;2023-09-19T00:26:03;3.00;;;1.70;;
75456;SDS011;64036;48.266;14.192;2023-09-19T00:28:30;3.90;;;1.90;;
75456;SDS011;64036;48.266;14.192;2023-09-19T00:30:57;4.60;;;2.20;;
75456;SDS011;64036;48.266;14.192;2023-09-19T00:33:26;3.20;;;1.80;;
75456;SDS011;64036;48.266;14.192;2023-09-19T00:35:56;9.80;;;2.20;;
75456;SDS011;64036;48.266;14.192;2023-09-19T00:38:23;3.40;;;2.00;;
75456;SDS011;64036;48.266;14.192;2023-09-19T00:40:52;3.80;;;1.90;;
75456;SDS011;64036;48.266;14.192;2023-09-19T00:43:22;3.90;;;2.00;;
75456;SDS011;64036;48.266;14.192;2023-09-19T00:45:52;1.90;;;1.60;;
75456;SDS011;64036;48.266;14.192;2023-09-19T00:48:20;3.50;;;1.90;;
75456;SDS011;64036;48.266;14.192;2023-09-19T00:50:47;2.80;;;1.80;;
75456;SDS011;64036;48.266;14.192;2023-09-19T00:53:18;5.10;;;2.10;;
75456;SDS011;64036;48.266;14.192;2023-09-19T00:55:46;5.50;;;2.60;;
75456;SDS011;64036;48.266;14.192;2023-09-19T00:58:12;3.00;;;2.00;;
75456;SDS011;64036;48.266;14.192;2023-09-19T01:00:38;3.90;;;2.20;;
75456;SDS011;64036;48.266;14.192;2023-09-19T01:03:05;3.60;;;2.10;;
75456;SDS011;64036;48.266;14.192;2023-09-19T01:05:33;3.10;;;1.90;;
75456;SDS011;64036;48.266;14.192;2023-09-19T01:07:59;5.70;;;2.10;;
75456;SDS011;64036;48.266;14.192;2023-09-19T01:10:25;4.90;;;1.70;;
75456;SDS011;64036;48.266;14.192;2023-09-19T01:30:57;4.60;;;1.70;;
75456;SDS011;64036;48.266;14.192;2023-09-19T01:33:24;2.90;;;1.80;;
75456;SDS011;64036;48.266;14.192;2023-09-19T01:35:51;2.90;;;1.60;;
75456;SDS011;64036;48.266;14.192;2023-09-19T01:38:23;4.00;;;1.60;;
75456;SDS011;64036;48.266;14.192;2023-09-19T01:41:06;4.20;;;1.40;;
75456;SDS011;64036;48.266;14.192;2023-09-19T01:43:38;3.50;;;1.50;;
75456;SDS011;64036;48.266;14.192;2023-09-19T01:46:21;3.30;;;1.40;;
75456;SDS011;64036;48.266;14.192;2023-09-19T01:49:23;5.00;;;1.50;;
75456;SDS011;64036;48.266;14.192;2023-09-19T01:52:12;2.00;;;1.30;;
75456;SDS011;64036;48.266;14.192;2023-09-19T01:55:02;3.00;;;1.60;;
75456;SDS011;64036;48.266;14.192;2023-09-19T01:57:38;2.30;;;1.20;;
75456;SDS011;64036;48.266;14.192;2023-09-19T02:00:10;3.60;;;1.30;;
75456;SDS011;64036;48.266;14.192;2023-09-19T02:02:38;2.30;;;1.20;;
75456;SDS011;64036;48.266;14.192;2023-09-19T02:05:06;2.30;;;1.20;;
75456;SDS011;64036;48.266;14.192;2023-09-19T02:07:32;1.20;;;1.10;;
75456;SDS011;64036;48.266;14.192;2023-09-19T02:09:58;3.20;;;1.40;;
75456;SDS011;64036;48.266;14.192;2023-09-19T02:12:28;2.20;;;1.20;;
75456;SDS011;64036;48.266;14.192;2023-09-19T02:14:54;1.70;;;1.10;;
75456;SDS011;64036;48.266;14.192;2023-09-19T02:17:22;4.10;;;2.10;;
75456;SDS011;64036;48.266;14.192;2023-09-19T02:19:52;3.00;;;1.20;;
75456;SDS011;64036;48.266;14.192;2023-09-19T02:22:20;4.10;;;1.30;;
75456;SDS011;64036;48.266;14.192;2023-09-19T02:24:46;3.50;;;1.30;;
75456;SDS011;64036;48.266;14.192;2023-09-19T02:27:13;3.00;;;1.40;;
75456;SDS011;64036;48.266;14.192;2023-09-19T02:29:42;10.50;;;1.70;;
75456;SDS011;64036;48.266;14.192;2023-09-19T02:32:07;2.20;;;1.30;;
75456;SDS011;64036;48.266;14.192;2023-09-19T02:34:35;2.20;;;1.30;;
75456;SDS011;64036;48.266;14.192;2023-09-19T02:37:07;3.60;;;1.50;;
75456;SDS011;64036;48.266;14.192;2023-09-19T02:39:34;3.10;;;1.90;;
75456;SDS011;64036;48.266;14.192;2023-09-19T02:42:00;3.20;;;1.50;;
75456;SDS011;64036;48.266;14.192;2023-09-19T02:44:26;6.00;;;2.30;;
75456;SDS011;64036;48.266;14.192;2023-09-19T02:46:52;2.80;;;1.70;;
75456;SDS011;64036;48.266;14.192;2023-09-19T02:49:18;3.40;;;1.60;;
75456;SDS011;64036;48.266;14.192;2023-09-19T02:51:44;3.50;;;1.70;;
75456;SDS011;64036;48.266;14.192;2023-09-19T02:54:11;2.80;;;1.80;;
75456;SDS011;64036;48.266;14.192;2023-09-19T02:56:37;5.80;;;1.90;;
75456;SDS011;64036;48.266;14.192;2023-09-19T02:59:04;2.80;;;1.70;;
75456;SDS011;64036;48.266;14.192;2023-09-19T03:01:31;4.10;;;1.60;;
75456;SDS011;64036;48.266;14.192;2023-09-19T03:03:57;3.20;;;1.70;;
75456;SDS011;64036;48.266;14.192;2023-09-19T03:06:23;2.20;;;1.50;;
75456;SDS011;64036;48.266;14.192;2023-09-19T03:08:50;3.90;;;1.90;;
75456;SDS011;64036;48.266;14.192;2023-09-19T03:11:17;3.50;;;1.50;;
75456;SDS011;64036;48.266;14.192;2023-09-19T03:13:53;3.60;;;1.80;;
75456;SDS011;64036;48.266;14.192;2023-09-19T03:16:19;3.50;;;1.90;;
75456;SDS011;64036;48.266;14.192;2023-09-19T03:18:48;4.10;;;1.90;;
75456;SDS011;64036;48.266;14.192;2023-09-19T03:21:17;4.80;;;2.20;;
75456;SDS011;64036;48.266;14.192;2023-09-19T03:23:44;4.30;;;2.10;;
75456;SDS011;64036;48.266;14.192;2023-09-19T03:26:14;3.30;;;2.20;;
75456;SDS011;64036;48.266;14.192;2023-09-19T03:28:41;3.30;;;2.20;;
75456;SDS011;64036;48.266;14.192;2023-09-19T03:31:08;3.20;;;1.80;;
75456;SDS011;64036;48.266;14.192;2023-09-19T03:33:34;4.70;;;1.90;;
75456;SDS011;64036;48.266;14.192;2023-09-19T03:36:01;6.30;;;2.20;;
75456;SDS011;64036;48.266;14.192;2023-09-19T03:38:31;3.50;;;1.70;;
75456;SDS011;64036;48.266;14.192;2023-09-19T03:40:58;3.50;;;2.20;;
75456;SDS011;64036;48.266;14.192;2023-09-19T03:43:24;4.30;;;2.00;;
75456;SDS011;64036;48.266;14.192;2023-09-19T03:45:50;4.10;;;2.10;;
75456;SDS011;64036;48.266;14.192;2023-09-19T03:48:20;3.10;;;2.00;;
75456;SDS011;64036;48.266;14.192;2023-09-19T03:50:47;3.20;;;1.90;;
75456;SDS011;64036;48.266;14.192;2023-09-19T03:53:13;4.90;;;2.20;;
75456;SDS011;64036;48.266;14.192;2023-09-19T03:55:44;3.50;;;2.10;;
75456;SDS011;64036;48.266;14.192;2023-09-19T03:58:11;3.20;;;2.10;;
75456;SDS011;64036;48.266;14.192;2023-09-19T04:00:37;3.20;;;2.10;;
75456;SDS011;64036;48.266;14.192;2023-09-19T04:03:03;4.00;;;1.90;;
75456;SDS011;64036;48.266;14.192;2023-09-19T04:05:31;4.70;;;2.40;;
75456;SDS011;64036;48.266;14.192;2023-09-19T04:07:59;3.70;;;2.20;;
75456;SDS011;64036;48.266;14.192;2023-09-19T04:10:24;4.80;;;2.10;;
75456;SDS011;64036;48.266;14.192;2023-09-19T04:12:53;3.20;;;2.10;;
75456;SDS011;64036;48.266;14.192;2023-09-19T04:15:20;3.80;;;2.10;;
75456;SDS011;64036;48.266;14.192;2023-09-19T04:17:49;4.60;;;2.60;;
75456;SDS011;64036;48.266;14.192;2023-09-19T04:20:17;5.90;;;2.40;;
75456;SDS011;64036;48.266;14.192;2023-09-19T04:22:45;5.00;;;2.60;;
75456;SDS011;64036;48.266;14.192;2023-09-19T04:25:12;4.10;;;2.20;;
75456;SDS011;64036;48.266;14.192;2023-09-19T04:27:38;5.20;;;2.20;;
75456;SDS011;64036;48.266;14.192;2023-09-19T04:30:05;5.20;;;2.00;;
75456;SDS011;64036;48.266;14.192;2023-09-19T04:32:35;3.00;;;2.00;;
75456;SDS011;64036;48.266;14.192;2023-09-19T04:35:06;3.60;;;2.30;;
75456;SDS011;64036;48.266;14.192;2023-09-19T04:37:39;5.20;;;2.20;;
75456;SDS011;64036;48.266;14.192;2023-09-19T04:40:09;4.70;;;2.60;;
75456;SDS011;64036;48.266;14.192;2023-09-19T04:42:42;6.20;;;2.60;;
75456;SDS011;64036;48.266;14.192;2023-09-19T04:45:09;4.90;;;2.60;;
75456;SDS011;64036;48.266;14.192;2023-09-19T04:47:36;5.60;;;2.90;;
75456;SDS011;64036;48.266;14.192;2023-09-19T04:50:06;4.10;;;2.50;;
75456;SDS011;64036;48.266;14.192;2023-09-19T04:52:33;4.50;;;2.20;;
75456;SDS011;64036;48.266;14.192;2023-09-19T04:54:59;4.00;;;2.20;;
75456;SDS011;64036;48.266;14.192;2023-09-19T04:57:24;5.10;;;2.20;;
75456;SDS011;64036;48.266;14.192;2023-09-19T04:59:51;3.90;;;2.20;;
75456;SDS011;64036;48.266;14.192;2023-09-19T05:02:16;3.80;;;2.40;;
75456;SDS011;64036;48.266;14.192;2023-09-19T05:04:42;3.60;;;2.10;;
75456;SDS011;64036;48.266;14.192;2023-09-19T05:07:08;3.20;;;2.00;;
75456;SDS011;64036;48.266;14.192;2023-09-19T05:09:35;4.80;;;2.30;;
75456;SDS011;64036;48.266;14.192;2023-09-19T05:12:03;3.70;;;2.30;;
75456;SDS011;64036;48.266;14.192;2023-09-19T05:14:28;3.50;;;2.00;;
75456;SDS011;64036;48.266;14.192;2023-09-19T05:16:55;4.10;;;1.80;;
75456;SDS011;64036;48.266;14.192;2023-09-19T05:19:20;3.30;;;1.90;;
75456;SDS011;64036;48.266;14.192;2023-09-19T05:21:46;4.70;;;2.00;;
75456;SDS011;64036;48.266;14.192;2023-09-19T05:24:12;5.00;;;2.00;;
75456;SDS011;64036;48.266;14.192;2023-09-19T05:26:40;2.90;;;1.70;;
75456;SDS011;64036;48.266;14.192;2023-09-19T05:29:05;4.00;;;1.80;;
75456;SDS011;64036;48.266;14.192;2023-09-19T05:31:33;3.40;;;1.70;;
75456;SDS011;64036;48.266;14.192;2023-09-19T05:34:01;3.60;;;1.60;;
75456;SDS011;64036;48.266;14.192;2023-09-19T05:36:27;3.60;;;1.70;;
75456;SDS011;64036;48.266;14.192;2023-09-19T05:38:55;2.80;;;1.50;;
75456;SDS011;64036;48.266;14.192;2023-09-19T05:41:20;2.70;;;1.60;;
75456;SDS011;64036;48.266;14.192;2023-09-19T05:43:49;2.60;;;1.70;;
75456;SDS011;64036;48.266;14.192;2023-09-19T05:46:15;3.00;;;1.70;;
75456;SDS011;64036;48.266;14.192;2023-09-19T05:48:42;4.50;;;1.70;;
75456;SDS011;64036;48.266;14.192;2023-09-19T05:51:09;3.40;;;1.60;;
75456;SDS011;64036;48.266;14.192;2023-09-19T05:53:35;3.50;;;1.70;;
75456;SDS011;64036;48.266;14.192;2023-09-19T05:56:01;3.00;;;1.70;;
75456;SDS011;64036;48.266;14.192;2023-09-19T05:58:26;2.60;;;1.40;;
75456;SDS011;64036;48.266;14.192;2023-09-19T06:00:52;1.80;;;1.30;;
75456;SDS011;64036;48.266;14.192;2023-09-19T06:03:18;2.50;;;1.50;;
75456;SDS011;64036;48.266;14.192;2023-09-19T06:05:44;5.70;;;1.70;;
75456;SDS011;64036;48.266;14.192;2023-09-19T06:08:11;3.20;;;2.00;;
75456;SDS011;64036;48.266;14.192;2023-09-19T06:10:37;3.40;;;1.50;;
75456;SDS011;64036;48.266;14.192;2023-09-19T06:13:03;4.30;;;1.60;;
75456;SDS011;64036;48.266;14.192;2023-09-19T06:15:30;1.60;;;1.40;;
75456;SDS011;64036;48.266;14.192;2023-09-19T06:17:58;5.70;;;1.90;;
75456;SDS011;64036;48.266;14.192;2023-09-19T06:20:26;3.50;;;1.70;;
75456;SDS011;64036;48.266;14.192;2023-09-19T06:22:52;3.00;;;1.60;;
75456;SDS011;64036;48.266;14.192;2023-09-19T06:25:19;4.30;;;1.50;;
75456;SDS011;64036;48.266;14.192;2023-09-19T06:27:48;2.60;;;1.50;;
75456;SDS011;64036;48.266;14.192;2023-09-19T06:30:17;3.40;;;1.40;;
75456;SDS011;64036;48.266;14.192;2023-09-19T06:32:44;4.10;;;1.90;;
75456;SDS011;64036;48.266;14.192;2023-09-19T06:35:11;2.90;;;1.40;;
75456;SDS011;64036;48.266;14.192;2023-09-19T06:37:38;2.00;;;1.40;;
75456;SDS011;64036;48.266;14.192;2023-09-19T06:40:14;2.60;;;1.40;;
75456;SDS011;64036;48.266;14.192;2023-09-19T06:47:39;2.90;;;1.50;;
75456;SDS011;64036;48.266;14.192;2023-09-19T06:50:05;2.20;;;1.50;;
75456;SDS011;64036;48.266;14.192;2023-09-19T06:52:34;2.00;;;1.30;;
75456;SDS011;64036;48.266;14.192;2023-09-19T06:55:00;2.20;;;1.40;;
75456;SDS011;64036;48.266;14.192;2023-09-19T06:57:28;2.20;;;1.40;;
75456;SDS011;64036;48.266;14.192;2023-09-19T06:59:56;3.20;;;1.60;;
75456;SDS011;64036;48.266;14.192;2023-09-19T07:02:21;5.40;;;1.70;;
75456;SDS011;64036;48.266;14.192;2023-09-19T07:04:47;3.60;;;1.60;;
75456;SDS011;64036;48.266;14.192;2023-09-19T07:07:13;2.30;;;1.50;;
75456;SDS011;64036;48.266;14.192;2023-09-19T07:09:39;5.90;;;1.60;;
75456;SDS011;64036;48.266;14.192;2023-09-19T07:12:05;6.40;;;1.80;;
75456;SDS011;64036;48.266;14.192;2023-09-19T07:14:31;4.00;;;1.50;;
75456;SDS011;64036;48.266;14.192;2023-09-19T07:16:57;2.30;;;1.50;;
75456;SDS011;64036;48.266;14.192;2023-09-19T07:19:25;4.70;;;1.70;;
75456;SDS011;64036;48.266;14.192;2023-09-19T07:21:54;3.60;;;1.50;;
75456;SDS011;64036;48.266;14.192;2023-09-19T07:24:19;3.40;;;1.60;;
75456;SDS011;64036;48.266;14.192;2023-09-19T07:26:48;2.10;;;1.40;;
75456;SDS011;64036;48.266;14.192;2023-09-19T07:29:14;5.70;;;1.50;;
75456;SDS011;64036;48.266;14.192;2023-09-19T07:31:40;4.20;;;1.70;;
75456;SDS011;64036;48.266;14.192;2023-09-19T07:34:07;4.00;;;1.80;;
75456;SDS011;64036;48.266;14.192;2023-09-19T07:36:34;3.70;;;1.40;;
75456;SDS011;64036;48.266;14.192;2023-09-19T07:39:02;3.90;;;1.60;;
75456;SDS011;64036;48.266;14.192;2023-09-19T07:41:33;4.70;;;1.50;;
75456;SDS011;64036;48.266;14.192;2023-09-19T07:43:59;3.60;;;1.50;;
75456;SDS011;64036;48.266;14.192;2023-09-19T07:46:25;4.20;;;1.60;;
75456;SDS011;64036;48.266;14.192;2023-09-19T07:48:51;3.20;;;1.40;;
75456;SDS011;64036;48.266;14.192;2023-09-19T07:51:17;3.00;;;1.30;;
75456;SDS011;64036;48.266;14.192;2023-09-19T07:53:43;4.60;;;1.50;;
75456;SDS011;64036;48.266;14.192;2023-09-19T07:56:09;1.60;;;1.10;;
75456;SDS011;64036;48.266;14.192;2023-09-19T07:58:38;3.60;;;1.60;;
75456;SDS011;64036;48.266;14.192;2023-09-19T08:01:07;4.80;;;1.70;;
75456;SDS011;64036;48.266;14.192;2023-09-19T08:03:33;2.60;;;1.40;;
75456;SDS011;64036;48.266;14.192;2023-09-19T08:06:00;3.90;;;1.40;;
75456;SDS011;64036;48.266;14.192;2023-09-19T08:08:27;3.50;;;1.50;;
75456;SDS011;64036;48.266;14.192;2023-09-19T08:10:56;3.30;;;1.40;;
75456;SDS011;64036;48.266;14.192;2023-09-19T08:13:23;3.80;;;1.40;;
75456;SDS011;64036;48.266;14.192;2023-09-19T08:15:50;3.00;;;1.30;;
75456;SDS011;64036;48.266;14.192;2023-09-19T08:18:19;4.20;;;1.60;;
75456;SDS011;64036;48.266;14.192;2023-09-19T08:20:52;3.20;;;1.60;;
75456;SDS011;64036;48.266;14.192;2023-09-19T08:23:18;2.60;;;1.60;;
75456;SDS011;64036;48.266;14.192;2023-09-19T08:25:47;5.00;;;1.90;;
75456;SDS011;64036;48.266;14.192;2023-09-19T08:28:13;3.60;;;1.40;;
75456;SDS011;64036;48.266;14.192;2023-09-19T08:30:44;3.70;;;1.60;;
75456;SDS011;64036;48.266;14.192;2023-09-19T08:33:11;3.70;;;1.60;;
75456;SDS011;64036;48.266;14.192;2023-09-19T08:35:37;4.30;;;1.70;;
75456;SDS011;64036;48.266;14.192;2023-09-19T08:38:05;4.10;;;1.30;;
75456;SDS011;64036;48.266;14.192;2023-09-19T08:40:32;3.00;;;1.30;;
75456;SDS011;64036;48.266;14.192;2023-09-19T08:43:01;4.00;;;1.60;;
75456;SDS011;64036;48.266;14.192;2023-09-19T08:45:27;3.50;;;1.80;;
75456;SDS011;64036;48.266;14.192;2023-09-19T08:53:51;2.40;;;1.30;;
75456;SDS011;64036;48.266;14.192;2023-09-19T08:56:21;3.10;;;1.50;;
75456;SDS011;64036;48.266;14.192;2023-09-19T08:58:53;2.10;;;1.20;;
75456;SDS011;64036;48.266;14.192;2023-09-19T09:01:24;2.90;;;1.50;;
75456;SDS011;64036;48.266;14.192;2023-09-19T09:03:53;2.40;;;1.30;;
75456;SDS011;64036;48.266;14.192;2023-09-19T09:06:21;3.30;;;1.50;;
75456;SDS011;64036;48.266;14.192;2023-09-19T09:08:50;6.10;;;1.30;;
75456;SDS011;64036;48.266;14.192;2023-09-19T09:11:16;2.80;;;1.30;;
75456;SDS011;64036;48.266;14.192;2023-09-19T09:13:46;2.00;;;1.20;;
75456;SDS011;64036;48.266;14.192;2023-09-19T09:16:13;2.20;;;1.30;;
75456;SDS011;64036;48.266;14.192;2023-09-19T09:18:43;2.90;;;1.60;;
75456;SDS011;64036;48.266;14.192;2023-09-19T09:21:11;3.60;;;1.40;;
75456;SDS011;64036;48.266;14.192;2023-09-19T09:23:39;2.30;;;1.30;;
75456;SDS011;64036;48.266;14.192;2023-09-19T09:26:05;2.90;;;1.40;;
75456;SDS011;64036;48.266;14.192;2023-09-19T09:28:33;3.10;;;1.40;;
75456;SDS011;64036;48.266;14.192;2023-09-19T09:31:01;2.50;;;1.40;;
75456;SDS011;64036;48.266;14.192;2023-09-19T09:33:35;3.30;;;1.30;;
75456;SDS011;64036;48.266;14.192;2023-09-19T09:36:02;3.00;;;1.40;;
75456;SDS011;64036;48.266;14.192;2023-09-19T09:38:43;1.90;;;1.30;;
75456;SDS011;64036;48.266;14.192;2023-09-19T09:41:15;2.40;;;1.20;;
75456;SDS011;64036;48.266;14.192;2023-09-19T09:43:53;2.20;;;1.40;;
75456;SDS011;64036;48.266;14.192;2023-09-19T09:46:20;2.70;;;1.50;;
75456;SDS011;64036;48.266;14.192;2023-09-19T09:49:03;2.40;;;1.30;;
75456;SDS011;64036;48.266;14.192;2023-09-19T09:51:57;2.40;;;1.20;;
75456;SDS011;64036;48.266;14.192;2023-09-19T09:54:29;2.10;;;1.20;;
75456;SDS011;64036;48.266;14.192;2023-09-19T09:57:06;3.10;;;1.60;;
75456;SDS011;64036;48.266;14.192;2023-09-19T09:59:58;1.30;;;1.10;;
75456;SDS011;64036;48.266;14.192;2023-09-19T10:02:36;4.80;;;1.50;;
75456;SDS011;64036;48.266;14.192;2023-09-19T10:05:15;1.70;;;1.20;;
75456;SDS011;64036;48.266;14.192;2023-09-19T10:07:53;3.30;;;1.30;;
75456;SDS011;64036;48.266;14.192;2023-09-19T10:10:32;2.70;;;1.30;;
75456;SDS011;64036;48.266;14.192;2023-09-19T10:13:06;3.30;;;1.30;;
75456;SDS011;64036;48.266;14.192;2023-09-19T10:15:33;2.60;;;1.10;;
75456;SDS011;64036;48.266;14.192;2023-09-19T10:18:01;3.00;;;1.60;;
75456;SDS011;64036;48.266;14.192;2023-09-19T10:20:30;1.90;;;1.20;;
75456;SDS011;64036;48.266;14.192;2023-09-19T10:23:04;2.60;;;1.10;;
75456;SDS011;64036;48.266;14.192;2023-09-19T10:25:37;1.90;;;1.10;;
75456;SDS011;64036;48.266;14.192;2023-09-19T10:28:06;2.40;;;1.40;;
75456;SDS011;64036;48.266;14.192;2023-09-19T10:30:43;1.60;;;1.10;;
75456;SDS011;64036;48.266;14.192;2023-09-19T10:33:14;1.50;;;1.10;;
75456;SDS011;64036;48.266;14.192;2023-09-19T10:35:43;2.10;;;1.30;;
75456;SDS011;64036;48.266;14.192;2023-09-19T10:38:11;2.20;;;1.10;;
75456;SDS011;64036;48.266;14.192;2023-09-19T10:40:44;2.20;;;1.10;;
75456;SDS011;64036;48.266;14.192;2023-09-19T10:43:16;3.10;;;1.30;;
75456;SDS011;64036;48.266;14.192;2023-09-19T10:45:44;3.20;;;1.40;;
75456;SDS011;64036;48.266;14.192;2023-09-19T10:48:15;2.00;;;1.20;;
75456;SDS011;64036;48.266;14.192;2023-09-19T10:53:55;2.40;;;1.20;;
75456;SDS011;64036;48.266;14.192;2023-09-19T10:56:32;1.80;;;1.20;;
75456;SDS011;64036;48.266;14.192;2023-09-19T10:59:09;2.80;;;1.30;;
75456;SDS011;64036;48.266;14.192;2023-09-19T11:01:46;3.30;;;1.20;;
75456;SDS011;64036;48.266;14.192;2023-09-19T11:04:37;2.30;;;1.20;;
75456;SDS011;64036;48.266;14.192;2023-09-19T11:07:09;3.00;;;1.10;;
75456;SDS011;64036;48.266;14.192;2023-09-19T11:12:12;1.70;;;1.20;;
75456;SDS011;64036;48.266;14.192;2023-09-19T11:26:44;2.40;;;1.20;;
75456;SDS011;64036;48.266;14.192;2023-09-19T11:29:29;1.30;;;0.90;;
75456;SDS011;64036;48.266;14.192;2023-09-19T11:31:59;1.80;;;1.00;;
75456;SDS011;64036;48.266;14.192;2023-09-19T11:34:37;2.40;;;1.10;;
75456;SDS011;64036;48.266;14.192;2023-09-19T11:40:16;2.10;;;1.10;;
75456;SDS011;64036;48.266;14.192;2023-09-19T11:42:45;1.50;;;0.90;;
75456;SDS011;64036;48.266;14.192;2023-09-19T11:48:13;2.00;;;1.10;;
75456;SDS011;64036;48.266;14.192;2023-09-19T11:50:45;3.70;;;1.50;;
75456;SDS011;64036;48.266;14.192;2023-09-19T11:53:12;1.30;;;1.00;;
75456;SDS011;64036;48.266;14.192;2023-09-19T11:55:40;2.40;;;1.10;;
75456;SDS011;64036;48.266;14.192;2023-09-19T11:58:09;2.10;;;1.30;;
75456;SDS011;64036;48.266;14.192;2023-09-19T12:00:39;1.70;;;1.00;;
75456;SDS011;64036;48.266;14.192;2023-09-19T12:03:10;3.50;;;1.40;;
75456;SDS011;64036;48.266;14.192;2023-09-19T12:05:37;3.40;;;1.20;;
75456;SDS011;64036;48.266;14.192;2023-09-19T12:08:04;2.30;;;1.00;;
75456;SDS011;64036;48.266;14.192;2023-09-19T12:10:44;1.80;;;1.10;;
75456;SDS011;64036;48.266;14.192;2023-09-19T12:13:17;3.70;;;1.20;;
75456;SDS011;64036;48.266;14.192;2023-09-19T12:15:44;1.30;;;1.00;;
75456;SDS011;64036;48.266;14.192;2023-09-19T12:18:31;2.50;;;1.20;;
75456;SDS011;64036;48.266;14.192;2023-09-19T12:20:58;1.50;;;1.20;;
75456;SDS011;64036;48.266;14.192;2023-09-19T12:23:25;2.60;;;1.00;;
75456;SDS011;64036;48.266;14.192;2023-09-19T12:25:51;1.70;;;1.00;;
75456;SDS011;64036;48.266;14.192;2023-09-19T12:28:21;2.50;;;1.30;;
75456;SDS011;64036;48.266;14.192;2023-09-19T12:30:49;1.70;;;1.20;;
75456;SDS011;64036;48.266;14.192;2023-09-19T12:33:19;1.60;;;1.00;;
75456;SDS011;64036;48.266;14.192;2023-09-19T12:35:46;2.10;;;1.10;;
75456;SDS011;64036;48.266;14.192;2023-09-19T12:38:23;2.00;;;1.30;;
75456;SDS011;64036;48.266;14.192;2023-09-19T12:40:50;3.30;;;1.10;;
75456;SDS011;64036;48.266;14.192;2023-09-19T12:43:18;1.90;;;1.00;;
75456;SDS011;64036;48.266;14.192;2023-09-19T12:45:44;2.30;;;1.10;;
75456;SDS011;64036;48.266;14.192;2023-09-19T12:51:01;1.40;;;0.90;;
75456;SDS011;64036;48.266;14.192;2023-09-19T12:53:35;3.00;;;1.10;;
75456;SDS011;64036;48.266;14.192;2023-09-19T12:56:15;2.70;;;1.10;;
75456;SDS011;64036;48.266;14.192;2023-09-19T13:01:19;1.60;;;1.00;;
75456;SDS011;64036;48.266;14.192;2023-09-19T13:03:45;0.90;;;0.80;;
75456;SDS011;64036;48.266;14.192;2023-09-19T13:06:11;2.40;;;0.90;;
75456;SDS011;64036;48.266;14.192;2023-09-19T13:08:39;2.10;;;0.90;;
75456;SDS011;64036;48.266;14.192;2023-09-19T13:11:17;1.90;;;1.10;;
75456;SDS011;64036;48.266;14.192;2023-09-19T13:13:46;1.80;;;1.00;;
75456;SDS011;64036;48.266;14.192;2023-09-19T13:16:20;1.40;;;1.00;;
75456;SDS011;64036;48.266;14.192;2023-09-19T13:18:54;2.30;;;1.00;;
75456;SDS011;64036;48.266;14.192;2023-09-19T13:21:33;1.40;;;0.80;;
75456;SDS011;64036;48.266;14.192;2023-09-19T13:24:23;1.10;;;1.00;;
75456;SDS011;64036;48.266;14.192;2023-09-19T13:26:54;1.60;;;0.80;;
75456;SDS011;64036;48.266;14.192;2023-09-19T13:29:21;0.70;;;0.60;;
75456;SDS011;64036;48.266;14.192;2023-09-19T13:31:51;2.00;;;1.00;;
75456;SDS011;64036;48.266;14.192;2023-09-19T13:34:21;1.00;;;0.80;;
75456;SDS011;64036;48.266;14.192;2023-09-19T13:36:47;2.10;;;0.80;;
75456;SDS011;64036;48.266;14.192;2023-09-19T13:39:14;4.40;;;1.10;;
75456;SDS011;64036;48.266;14.192;2023-09-19T13:41:49;1.20;;;0.70;;
75456;SDS011;64036;48.266;14.192;2023-09-19T13:44:15;1.20;;;0.80;;
75456;SDS011;64036;48.266;14.192;2023-09-19T13:46:43;0.60;;;0.60;;
75456;SDS011;64036;48.266;14.192;2023-09-19T13:49:11;1.40;;;0.60;;
75456;SDS011;64036;48.266;14.192;2023-09-19T13:51:37;2.30;;;0.60;;
75456;SDS011;64036;48.266;14.192;2023-09-19T13:54:03;1.70;;;0.80;;
75456;SDS011;64036;48.266;14.192;2023-09-19T13:56:28;0.70;;;0.60;;
75456;SDS011;64036;48.266;14.192;2023-09-19T13:58:56;1.50;;;0.70;;
75456;SDS011;64036;48.266;14.192;2023-09-19T14:01:22;0.80;;;0.70;;
75456;SDS011;64036;48.266;14.192;2023-09-19T14:03:48;1.10;;;0.60;;
75456;SDS011;64036;48.266;14.192;2023-09-19T14:06:16;3.00;;;0.80;;
75456;SDS011;64036;48.266;14.192;2023-09-19T14:08:43;1.20;;;0.70;;
75456;SDS011;64036;48.266;14.192;2023-09-19T14:11:13;1.00;;;0.70;;
75456;SDS011;64036;48.266;14.192;2023-09-19T14:13:39;2.40;;;0.60;;
75456;SDS011;64036;48.266;14.192;2023-09-19T14:16:08;1.50;;;0.90;;
75456;SDS011;64036;48.266;14.192;2023-09-19T14:18:35;1.40;;;0.90;;
75456;SDS011;64036;48.266;14.192;2023-09-19T14:21:04;1.00;;;0.80;;
75456;SDS011;64036;48.266;14.192;2023-09-19T14:23:37;4.40;;;0.90;;
75456;SDS011;64036;48.266;14.192;2023-09-19T14:26:04;1.30;;;0.70;;
75456;SDS011;64036;48.266;14.192;2023-09-19T14:28:31;1.60;;;0.90;;
75456;SDS011;64036;48.266;14.192;2023-09-19T14:31:04;1.20;;;0.80;;
75456;SDS011;64036;48.266;14.192;2023-09-19T14:33:31;1.00;;;0.90;;
75456;SDS011;64036;48.266;14.192;2023-09-19T14:35:57;1.30;;;0.90;;
75456;SDS011;64036;48.266;14.192;2023-09-19T14:38:23;1.30;;;0.60;;
75456;SDS011;64036;48.266;14.192;2023-09-19T14:40:48;1.00;;;0.80;;
75456;SDS011;64036;48.266;14.192;2023-09-19T14:43:15;1.30;;;0.90;;
75456;SDS011;64036;48.266;14.192;2023-09-19T14:45:41;0.70;;;0.70;;
75456;SDS011;64036;48.266;14.192;2023-09-19T14:48:07;1.90;;;0.80;;
75456;SDS011;64036;48.266;14.192;2023-09-19T14:50:32;1.00;;;0.80;;
75456;SDS011;64036;48.266;14.192;2023-09-19T14:52:58;1.70;;;0.60;;
75456;SDS011;64036;48.266;14.192;2023-09-19T14:55:27;2.60;;;1.00;;
75456;SDS011;64036;48.266;14.192;2023-09-19T14:57:55;1.00;;;0.80;;
75456;SDS011;64036;48.266;14.192;2023-09-19T15:00:23;0.80;;;0.70;;
75456;SDS011;64036;48.266;14.192;2023-09-19T15:02:49;1.70;;;0.70;;
75456;SDS011;64036;48.266;14.192;2023-09-19T15:05:16;1.20;;;0.90;;
75456;SDS011;64036;48.266;14.192;2023-09-19T15:07:42;1.50;;;0.90;;
75456;SDS011;64036;48.266;14.192;2023-09-19T15:10:08;1.30;;;0.90;;
75456;SDS011;64036;48.266;14.192;2023-09-19T15:12:38;2.40;;;0.90;;
75456;SDS011;64036;48.266;14.192;2023-09-19T15:15:05;2.20;;;0.90;;
75456;SDS011;64036;48.266;14.192;2023-09-19T15:17:35;2.30;;;0.90;;
75456;SDS011;64036;48.266;14.192;2023-09-19T15:20:02;1.00;;;0.80;;
75456;SDS011;64036;48.266;14.192;2023-09-19T15:22:28;0.90;;;0.80;;
75456;SDS011;64036;48.266;14.192;2023-09-19T15:24:54;1.70;;;0.90;;
75456;SDS011;64036;48.266;14.192;2023-09-19T15:27:21;1.00;;;0.90;;
75456;SDS011;64036;48.266;14.192;2023-09-19T15:29:47;1.10;;;0.80;;
75456;SDS011;64036;48.266;14.192;2023-09-19T15:32:13;3.10;;;1.00;;
75456;SDS011;64036;48.266;14.192;2023-09-19T15:34:38;1.30;;;0.90;;
75456;SDS011;64036;48.266;14.192;2023-09-19T15:37:04;2.20;;;1.10;;
75456;SDS011;64036;48.266;14.192;2023-09-19T15:39:31;0.90;;;0.80;;
75456;SDS011;64036;48.266;14.192;2023-09-19T15:41:59;1.40;;;0.90;;